sensor_id;sensor_type;location;lat;lon;timestamp;temperature;humidity
9201;DHT22;4635;48.686;9.008;2024-01-11T00:20:54;-6.10;1.00
9201;DHT22;4635;48.686;9.008;2024-01-11T00:23:32;-6.10;1.00
9201;DHT22;4635;48.686;9.008;2024-01-11T00:29:08;-6.00;1.00
9201;DHT22;4635;48.686;9.008;2024-01-11T00:31:54;-6.20;1.00
9201;DHT22;4635;48.686;9.008;2024-01-11T00:34:55;-6.20;1.00
9201;DHT22;4635;48.686;9.008;2024-01-11T00:43:47;-6.20;1.00
9201;DHT22;4635;48.686;9.008;2024-01-11T00:46:50;-6.20;1.00
9201;DHT22;4635;48.686;9.008;2024-01-11T00:49:35;-6.20;1.00
9201;DHT22;4635;48.686;9.008;2024-01-11T00:55:17;-6.20;1.00
9201;DHT22;4635;48.686;9.008;2024-01-11T00:58:00;-6.20;1.00
9201;DHT22;4635;48.686;9.008;2024-01-11T01:09:44;-6.20;1.00
9201;DHT22;4635;48.686;9.008;2024-01-11T01:15:29;-6.20;1.00
9201;DHT22;4635;48.686;9.008;2024-01-11T01:18:41;-6.30;1.00
9201;DHT22;4635;48.686;9.008;2024-01-11T01:21:28;-6.30;1.00
9201;DHT22;4635;48.686;9.008;2024-01-11T01:24:11;-6.40;1.00
9201;DHT22;4635;48.686;9.008;2024-01-11T01:42:02;-6.40;1.00
9201;DHT22;4635;48.686;9.008;2024-01-11T01:44:44;-6.40;1.00
9201;DHT22;4635;48.686;9.008;2024-01-11T01:47:28;-6.50;1.00
9201;DHT22;4635;48.686;9.008;2024-01-11T01:50:13;-6.40;1.00
9201;DHT22;4635;48.686;9.008;2024-01-11T01:52:47;-6.50;1.00
9201;DHT22;4635;48.686;9.008;2024-01-11T01:55:34;-6.50;1.00
9201;DHT22;4635;48.686;9.008;2024-01-11T02:01:27;-6.50;1.00
9201;DHT22;4635;48.686;9.008;2024-01-11T02:04:13;-6.60;1.00
9201;DHT22;4635;48.686;9.008;2024-01-11T02:07:05;-6.60;1.00
9201;DHT22;4635;48.686;9.008;2024-01-11T02:10:00;-6.50;1.00
9201;DHT22;4635;48.686;9.008;2024-01-11T02:12:44;-6.60;1.00
9201;DHT22;4635;48.686;9.008;2024-01-11T02:15:32;-6.50;1.00
9201;DHT22;4635;48.686;9.008;2024-01-11T02:27:12;-6.60;1.00
9201;DHT22;4635;48.686;9.008;2024-01-11T02:29:59;-6.50;1.00
9201;DHT22;4635;48.686;9.008;2024-01-11T02:32:39;-6.40;1.00
9201;DHT22;4635;48.686;9.008;2024-01-11T02:35:20;-6.40;1.00
9201;DHT22;4635;48.686;9.008;2024-01-11T02:37:52;-6.40;1.00
9201;DHT22;4635;48.686;9.008;2024-01-11T02:40:28;-6.40;1.00
9201;DHT22;4635;48.686;9.008;2024-01-11T02:46:13;-6.40;1.00
9201;DHT22;4635;48.686;9.008;2024-01-11T02:48:50;-6.50;1.00
9201;DHT22;4635;48.686;9.008;2024-01-11T02:51:33;-6.60;1.00
9201;DHT22;4635;48.686;9.008;2024-01-11T02:54:13;-6.70;1.00
9201;DHT22;4635;48.686;9.008;2024-01-11T02:56:58;-6.70;1.00
9201;DHT22;4635;48.686;9.008;2024-01-11T02:59:37;-6.80;1.00
9201;DHT22;4635;48.686;9.008;2024-01-11T03:08:16;-6.70;1.00
9201;DHT22;4635;48.686;9.008;2024-01-11T03:10:59;-6.70;1.00
9201;DHT22;4635;48.686;9.008;2024-01-11T03:13:35;-6.60;1.00
9201;DHT22;4635;48.686;9.008;2024-01-11T03:16:19;-6.60;1.00
9201;DHT22;4635;48.686;9.008;2024-01-11T03:19:02;-6.60;1.00
9201;DHT22;4635;48.686;9.008;2024-01-11T03:21:47;-6.70;1.00
9201;DHT22;4635;48.686;9.008;2024-01-11T03:28:04;-6.80;1.00
9201;DHT22;4635;48.686;9.008;2024-01-11T03:30:48;-6.90;1.00
9201;DHT22;4635;48.686;9.008;2024-01-11T03:33:20;-6.90;1.00
9201;DHT22;4635;48.686;9.008;2024-01-11T03:36:08;-6.80;1.00
9201;DHT22;4635;48.686;9.008;2024-01-11T03:38:51;-6.90;1.00
9201;DHT22;4635;48.686;9.008;2024-01-11T03:41:29;-6.90;1.00
9201;DHT22;4635;48.686;9.008;2024-01-11T03:44:20;-7.00;1.00
9201;DHT22;4635;48.686;9.008;2024-01-11T03:50:05;-6.90;1.00
9201;DHT22;4635;48.686;9.008;2024-01-11T03:52:50;-7.00;1.00
9201;DHT22;4635;48.686;9.008;2024-01-11T03:55:33;-7.00;1.00
9201;DHT22;4635;48.686;9.008;2024-01-11T03:58:08;-7.00;1.00
9201;DHT22;4635;48.686;9.008;2024-01-11T04:00:54;-7.00;1.00
9201;DHT22;4635;48.686;9.008;2024-01-11T04:03:27;-7.00;1.00
9201;DHT22;4635;48.686;9.008;2024-01-11T04:06:05;-7.00;1.00
9201;DHT22;4635;48.686;9.008;2024-01-11T04:08:48;-7.00;1.00
9201;DHT22;4635;48.686;9.008;2024-01-11T04:11:34;-7.10;1.00
9201;DHT22;4635;48.686;9.008;2024-01-11T04:14:20;-7.10;1.00
9201;DHT22;4635;48.686;9.008;2024-01-11T04:20:14;-7.10;1.00
9201;DHT22;4635;48.686;9.008;2024-01-11T04:22:46;-7.10;1.00
9201;DHT22;4635;48.686;9.008;2024-01-11T04:29:28;-7.00;1.00
9201;DHT22;4635;48.686;9.008;2024-01-11T04:32:12;-7.10;1.00
9201;DHT22;4635;48.686;9.008;2024-01-11T04:35:06;-7.20;1.00
9201;DHT22;4635;48.686;9.008;2024-01-11T04:37:39;-7.20;1.00
9201;DHT22;4635;48.686;9.008;2024-01-11T04:40:22;-7.20;1.00
9201;DHT22;4635;48.686;9.008;2024-01-11T04:43:03;-7.10;1.00
9201;DHT22;4635;48.686;9.008;2024-01-11T04:45:43;-7.10;1.00
9201;DHT22;4635;48.686;9.008;2024-01-11T04:48:21;-7.20;1.00
9201;DHT22;4635;48.686;9.008;2024-01-11T04:51:06;-7.30;1.00
9201;DHT22;4635;48.686;9.008;2024-01-11T04:53:43;-7.30;1.00
9201;DHT22;4635;48.686;9.008;2024-01-11T04:56:28;-7.20;1.00
9201;DHT22;4635;48.686;9.008;2024-01-11T04:59:10;-7.20;1.00
9201;DHT22;4635;48.686;9.008;2024-01-11T05:07:31;-7.20;1.00
9201;DHT22;4635;48.686;9.008;2024-01-11T05:10:09;-7.20;1.00
9201;DHT22;4635;48.686;9.008;2024-01-11T05:13:13;-7.20;1.00
9201;DHT22;4635;48.686;9.008;2024-01-11T05:16:01;-7.20;1.00
9201;DHT22;4635;48.686;9.008;2024-01-11T05:18:34;-7.20;1.00
9201;DHT22;4635;48.686;9.008;2024-01-11T05:21:10;-7.20;1.00
9201;DHT22;4635;48.686;9.008;2024-01-11T05:23:58;-7.10;1.00
9201;DHT22;4635;48.686;9.008;2024-01-11T05:26:51;-7.10;1.00
9201;DHT22;4635;48.686;9.008;2024-01-11T05:29:32;-7.20;1.00
9201;DHT22;4635;48.686;9.008;2024-01-11T05:32:11;-7.20;1.00
9201;DHT22;4635;48.686;9.008;2024-01-11T05:34:48;-7.20;1.00
9201;DHT22;4635;48.686;9.008;2024-01-11T05:37:24;-7.20;1.00
9201;DHT22;4635;48.686;9.008;2024-01-11T05:46:23;-6.90;1.00
9201;DHT22;4635;48.686;9.008;2024-01-11T05:49:11;-7.00;1.00
9201;DHT22;4635;48.686;9.008;2024-01-11T05:51:56;-6.90;1.00
9201;DHT22;4635;48.686;9.008;2024-01-11T05:54:39;-7.00;1.00
9201;DHT22;4635;48.686;9.008;2024-01-11T05:57:14;-7.00;1.00
9201;DHT22;4635;48.686;9.008;2024-01-11T05:59:51;-7.10;1.00
9201;DHT22;4635;48.686;9.008;2024-01-11T06:02:43;-7.10;1.00
9201;DHT22;4635;48.686;9.008;2024-01-11T06:05:47;-7.20;1.00
9201;DHT22;4635;48.686;9.008;2024-01-11T06:08:36;-7.20;1.00
9201;DHT22;4635;48.686;9.008;2024-01-11T06:11:24;-7.30;1.00
9201;DHT22;4635;48.686;9.008;2024-01-11T06:14:11;-7.30;1.00
9201;DHT22;4635;48.686;9.008;2024-01-11T06:16:53;-7.30;1.00
9201;DHT22;4635;48.686;9.008;2024-01-11T06:19:42;-7.30;1.00
9201;DHT22;4635;48.686;9.008;2024-01-11T06:22:34;-7.40;1.00
9201;DHT22;4635;48.686;9.008;2024-01-11T06:25:20;-7.30;1.00
9201;DHT22;4635;48.686;9.008;2024-01-11T06:31:47;-7.30;1.00
9201;DHT22;4635;48.686;9.008;2024-01-11T06:34:22;-7.30;1.00
9201;DHT22;4635;48.686;9.008;2024-01-11T06:37:19;-7.30;1.00
9201;DHT22;4635;48.686;9.008;2024-01-11T06:40:10;-7.20;1.00
9201;DHT22;4635;48.686;9.008;2024-01-11T06:42:57;-7.30;1.00
9201;DHT22;4635;48.686;9.008;2024-01-11T06:45:46;-7.30;1.00
9201;DHT22;4635;48.686;9.008;2024-01-11T06:48:27;-7.30;1.00
9201;DHT22;4635;48.686;9.008;2024-01-11T06:54:08;-7.40;1.00
9201;DHT22;4635;48.686;9.008;2024-01-11T06:56:41;-7.40;1.00
9201;DHT22;4635;48.686;9.008;2024-01-11T06:59:20;-7.30;1.00
9201;DHT22;4635;48.686;9.008;2024-01-11T07:02:11;-7.30;1.00
9201;DHT22;4635;48.686;9.008;2024-01-11T07:04:54;-7.30;1.00
9201;DHT22;4635;48.686;9.008;2024-01-11T07:07:40;-7.20;1.00
9201;DHT22;4635;48.686;9.008;2024-01-11T07:10:25;-7.20;1.00
9201;DHT22;4635;48.686;9.008;2024-01-11T07:13:12;-7.20;1.00
9201;DHT22;4635;48.686;9.008;2024-01-11T07:16:09;-7.20;1.00
9201;DHT22;4635;48.686;9.008;2024-01-11T07:21:59;-6.90;1.00
9201;DHT22;4635;48.686;9.008;2024-01-11T07:27:57;-6.70;1.00
9201;DHT22;4635;48.686;9.008;2024-01-11T07:30:37;-6.90;1.00
9201;DHT22;4635;48.686;9.008;2024-01-11T07:33:29;-6.90;1.00
9201;DHT22;4635;48.686;9.008;2024-01-11T07:36:18;-7.00;1.00
9201;DHT22;4635;48.686;9.008;2024-01-11T07:39:20;-7.00;1.00
9201;DHT22;4635;48.686;9.008;2024-01-11T07:44:58;-7.10;1.00
9201;DHT22;4635;48.686;9.008;2024-01-11T07:47:57;-7.10;1.00
9201;DHT22;4635;48.686;9.008;2024-01-11T07:50:58;-7.10;1.00
9201;DHT22;4635;48.686;9.008;2024-01-11T07:53:41;-7.00;1.00
9201;DHT22;4635;48.686;9.008;2024-01-11T08:47:58;-4.90;99.90
9201;DHT22;4635;48.686;9.008;2024-01-11T08:53:59;-5.00;99.90
9201;DHT22;4635;48.686;9.008;2024-01-11T08:57:05;-4.90;99.90
9201;DHT22;4635;48.686;9.008;2024-01-11T08:59:55;-4.90;99.90
9201;DHT22;4635;48.686;9.008;2024-01-11T09:18:29;-4.40;99.90
9201;DHT22;4635;48.686;9.008;2024-01-11T09:23:39;-4.40;99.90
9201;DHT22;4635;48.686;9.008;2024-01-11T09:53:42;-3.90;99.90
9201;DHT22;4635;48.686;9.008;2024-01-11T09:56:13;-3.90;99.90
9201;DHT22;4635;48.686;9.008;2024-01-11T09:58:47;-3.70;99.90
9201;DHT22;4635;48.686;9.008;2024-01-11T10:01:42;-3.60;99.90
9201;DHT22;4635;48.686;9.008;2024-01-11T10:07:47;-3.30;99.90
9201;DHT22;4635;48.686;9.008;2024-01-11T10:37:37;-2.40;99.90
9201;DHT22;4635;48.686;9.008;2024-01-11T10:46:52;-2.20;96.40
9201;DHT22;4635;48.686;9.008;2024-01-11T10:49:41;-2.10;83.60
9201;DHT22;4635;48.686;9.008;2024-01-11T11:37:43;-0.80;1.00
9201;DHT22;4635;48.686;9.008;2024-01-11T11:40:37;-0.80;1.00
9201;DHT22;4635;48.686;9.008;2024-01-11T12:16:52;-0.10;1.00
9201;DHT22;4635;48.686;9.008;2024-01-11T12:19:45;-0.10;1.00
9201;DHT22;4635;48.686;9.008;2024-01-11T12:30:51;0.20;1.00
9201;DHT22;4635;48.686;9.008;2024-01-11T19:27:54;-4.10;99.90
9201;DHT22;4635;48.686;9.008;2024-01-11T19:33:46;-4.10;1.00
9201;DHT22;4635;48.686;9.008;2024-01-11T19:36:31;-4.10;1.00
9201;DHT22;4635;48.686;9.008;2024-01-11T19:42:17;-4.20;1.00
9201;DHT22;4635;48.686;9.008;2024-01-11T21:36:48;-5.30;1.00
9201;DHT22;4635;48.686;9.008;2024-01-11T21:39:35;-5.40;1.00
9201;DHT22;4635;48.686;9.008;2024-01-11T21:42:30;-5.50;1.00
9201;DHT22;4635;48.686;9.008;2024-01-11T21:48:39;-5.50;1.00
9201;DHT22;4635;48.686;9.008;2024-01-11T21:51:24;-5.50;1.00
